Time;durP1;ratioP1;P1;durP2;ratioP2;P2;SDS_P1;SDS_P2;PMS_P1;PMS_P2;Temp;Humidity;BMP_temperature;BMP_pressure;BME280_temperature;BME280_humidity;BME280_pressure;Samples;Min_cycle;Max_cycle;Signal;HPM_P1;HPM_P2
2024/04/06 00:01:06;;;;;;;8.20;4.00;;;15.60;98.00;;;;;;5012092;28;20459;-67
2024/04/06 00:03:34;;;;;;;6.30;3.80;;;15.50;98.00;;;;;;5012060;28;20460;-67
2024/04/06 00:06:01;;;;;;;6.07;3.80;;;15.50;98.00;;;;;;5012276;28;20464;-68
2024/04/06 00:08:27;;;;;;;5.27;3.97;;;15.50;98.00;;;;;;5011984;28;20470;-67
2024/04/06 00:10:55;;;;;;;11.90;4.40;;;15.40;98.00;;;;;;5011875;28;20467;-66
2024/04/06 00:13:21;;;;;;;6.80;4.20;;;15.20;98.00;;;;;;5010593;28;20495;-67
2024/04/06 00:15:56;;;;;;;9.27;4.30;;;15.20;98.00;;;;;;5011710;28;20483;-67
2024/04/06 00:18:22;;;;;;;6.83;4.00;;;15.20;98.00;;;;;;5011734;28;20455;-67
2024/04/06 00:20:49;;;;;;;6.17;4.13;;;15.10;98.00;;;;;;5026887;28;20478;-66
2024/04/06 00:23:16;;;;;;;6.87;4.27;;;15.10;98.00;;;;;;5012114;28;20455;-67
2024/04/06 00:25:46;;;;;;;7.60;4.47;;;15.00;98.00;;;;;;5026924;28;20482;-66
2024/04/06 00:28:14;;;;;;;6.07;3.90;;;14.90;98.00;;;;;;5026918;28;20463;-66
2024/04/06 00:30:43;;;;;;;8.40;4.17;;;14.80;98.00;;;;;;5011962;28;20961;-66
2024/04/06 00:33:09;;;;;;;7.77;4.67;;;14.90;98.00;;;;;;5011812;28;20827;-66
2024/04/06 00:35:36;;;;;;;9.20;4.90;;;14.80;98.00;;;;;;5011392;28;20483;-66
2024/04/06 00:38:03;;;;;;;7.13;4.57;;;14.80;98.00;;;;;;5011521;28;20877;-67
2024/04/06 00:40:30;;;;;;;8.00;4.43;;;14.70;98.00;;;;;;5011526;28;20467;-66
2024/04/06 00:42:56;;;;;;;6.07;4.13;;;14.70;98.00;;;;;;5011417;28;20460;-66
2024/04/06 00:45:25;;;;;;;9.20;4.33;;;14.60;98.00;;;;;;5011412;28;20463;-66
2024/04/06 00:47:52;;;;;;;8.40;4.53;;;14.60;98.00;;;;;;5011252;28;20872;-66
2024/04/06 00:50:19;;;;;;;10.47;4.37;;;14.60;98.00;;;;;;5011092;28;20518;-66
2024/04/06 00:52:46;;;;;;;8.03;4.67;;;14.70;98.00;;;;;;5011318;28;20849;-66
2024/04/06 00:55:13;;;;;;;9.37;5.00;;;14.70;98.00;;;;;;5011228;28;20545;-66
2024/04/06 00:57:39;;;;;;;6.50;4.00;;;14.70;98.00;;;;;;5011076;28;20455;-66
2024/04/06 01:00:09;;;;;;;5.83;4.40;;;14.70;98.00;;;;;;5011211;28;20586;-66
2024/04/06 01:02:37;;;;;;;7.10;4.20;;;14.60;98.00;;;;;;5011342;28;20837;-67
2024/04/06 01:05:05;;;;;;;6.80;4.70;;;14.50;98.00;;;;;;5011176;28;20973;-66
2024/04/06 01:07:31;;;;;;;9.07;4.60;;;14.40;98.00;;;;;;5011260;28;20451;-67
2024/04/06 01:10:06;;;;;;;7.77;4.60;;;14.50;98.00;;;;;;5011447;28;20949;-66
2024/04/06 01:12:34;;;;;;;11.20;5.70;;;14.50;98.00;;;;;;5011100;28;20541;-66
2024/04/06 01:15:01;;;;;;;9.43;4.70;;;14.50;98.00;;;;;;5025760;28;20495;-66
2024/04/06 01:17:29;;;;;;;7.80;4.77;;;14.30;98.00;;;;;;5025984;28;20447;-66
2024/04/06 01:19:57;;;;;;;7.07;4.67;;;14.20;98.00;;;;;;5011015;28;20463;-66
2024/04/06 01:22:23;;;;;;;8.13;4.60;;;14.20;98.00;;;;;;5010955;28;20456;-66
2024/04/06 01:24:51;;;;;;;7.27;4.43;;;14.30;98.00;;;;;;5010885;28;20464;-67
2024/04/06 01:27:18;;;;;;;7.50;4.37;;;14.30;98.00;;;;;;5011497;28;20961;-66
2024/04/06 01:29:45;;;;;;;11.57;4.80;;;14.20;98.00;;;;;;5406213;22;20503;-66
2024/04/06 01:32:11;;;;;;;6.93;4.40;;;14.00;98.00;;;;;;5011327;28;20456;-66
2024/04/06 01:34:38;;;;;;;7.33;4.83;;;13.90;98.00;;;;;;5025958;28;20571;-66
2024/04/06 01:37:10;;;;;;;10.60;4.60;;;13.80;98.00;;;;;;5010837;28;20482;-66
2024/04/06 01:39:37;;;;;;;7.00;4.47;;;13.80;98.00;;;;;;5010622;28;20482;-66
2024/04/06 01:42:05;;;;;;;9.10;4.77;;;13.80;98.00;;;;;;5026047;28;20507;-66
2024/04/06 01:44:32;;;;;;;9.17;4.87;;;13.70;98.00;;;;;;5010844;28;20498;-66
2024/04/06 01:46:59;;;;;;;8.93;4.50;;;13.60;98.00;;;;;;5009332;28;21028;-66
2024/04/06 01:49:27;;;;;;;13.23;5.00;;;13.40;98.00;;;;;;5010917;28;20471;-66
2024/04/06 01:51:53;;;;;;;10.67;4.50;;;13.40;98.00;;;;;;5010835;28;20534;-66
2024/04/06 01:54:21;;;;;;;6.97;4.40;;;13.30;98.00;;;;;;5010623;28;20455;-66
2024/04/06 01:56:47;;;;;;;7.07;4.13;;;13.30;98.00;;;;;;5010649;28;20689;-66
2024/04/06 01:59:16;;;;;;;8.60;4.40;;;13.40;98.00;;;;;;5010728;28;20766;-66
2024/04/06 02:01:43;;;;;;;8.10;4.70;;;13.40;98.00;;;;;;5010648;28;20456;-66
2024/04/06 02:04:10;;;;;;;9.23;4.20;;;13.40;98.00;;;;;;5010657;28;20550;-66
2024/04/06 02:06:37;;;;;;;7.57;4.10;;;13.40;98.00;;;;;;5010393;28;20459;-66
2024/04/06 02:09:04;;;;;;;5.90;4.30;;;13.40;98.00;;;;;;5027059;28;20468;-66
2024/04/06 02:11:30;;;;;;;10.13;4.63;;;13.40;98.00;;;;;;5014289;28;20455;-67
2024/04/06 02:13:58;;;;;;;6.83;3.63;;;13.30;98.00;;;;;;5014295;28;20529;-66
2024/04/06 02:16:25;;;;;;;7.90;4.30;;;13.30;98.00;;;;;;5014474;28;20490;-66
2024/04/06 02:18:52;;;;;;;6.50;4.10;;;13.20;98.00;;;;;;5014059;28;21044;-66
2024/04/06 02:21:18;;;;;;;6.30;4.03;;;13.10;98.00;;;;;;5014228;28;20455;-66
2024/04/06 02:23:45;;;;;;;6.47;4.13;;;13.10;98.00;;;;;;5013980;28;20466;-66
2024/04/06 02:26:12;;;;;;;6.90;4.00;;;13.10;98.00;;;;;;5013946;28;20459;-66
2024/04/06 02:28:39;;;;;;;5.57;3.70;;;13.00;98.00;;;;;;5013822;28;20953;-66
2024/04/06 02:31:07;;;;;;;8.03;3.73;;;12.90;98.00;;;;;;5013643;28;20521;-66
2024/04/06 02:33:36;;;;;;;5.30;3.33;;;12.70;98.00;;;;;;5028593;28;20493;-66
2024/04/06 02:36:04;;;;;;;4.87;3.27;;;12.70;98.00;;;;;;5012473;28;20487;-66
2024/04/06 02:38:31;;;;;;;8.70;3.10;;;12.70;98.00;;;;;;5013720;28;20526;-66
2024/04/06 02:40:58;;;;;;;5.93;3.50;;;12.50;98.00;;;;;;5013491;28;20617;-66
2024/04/06 02:43:25;;;;;;;5.50;3.50;;;12.30;98.00;;;;;;5013621;28;20509;-66
2024/04/06 02:45:51;;;;;;;6.43;3.10;;;12.30;98.00;;;;;;5013392;28;20451;-66
2024/04/06 02:48:18;;;;;;;7.17;3.50;;;12.40;98.00;;;;;;5013419;28;20470;-66
2024/04/06 02:50:46;;;;;;;4.90;3.50;;;12.40;98.00;;;;;;5013103;28;20481;-66
2024/04/06 02:53:14;;;;;;;7.00;3.70;;;12.40;98.00;;;;;;5013517;28;20535;-66
2024/04/06 02:55:40;;;;;;;6.83;4.00;;;12.30;98.00;;;;;;5013267;28;20901;-66
2024/04/06 02:58:08;;;;;;;4.63;3.43;;;12.30;98.00;;;;;;5013509;28;20753;-66
2024/04/06 03:00:34;;;;;;;7.17;3.80;;;12.40;98.00;;;;;;5013129;28;20461;-66
2024/04/06 03:03:02;;;;;;;5.27;3.63;;;12.30;98.00;;;;;;5013263;28;20970;-66
2024/04/06 03:05:28;;;;;;;5.43;3.87;;;12.30;98.00;;;;;;5028262;28;20525;-66
2024/04/06 03:07:56;;;;;;;5.90;3.90;;;12.30;98.00;;;;;;5013207;28;21107;-66
2024/04/06 03:10:22;;;;;;;6.20;3.90;;;12.30;98.00;;;;;;5012976;28;20452;-66
2024/04/06 03:12:49;;;;;;;6.60;3.30;;;12.30;98.00;;;;;;5013276;28;20458;-66
2024/04/06 03:15:15;;;;;;;7.77;3.97;;;12.40;98.00;;;;;;5011469;28;20497;-66
2024/04/06 03:17:44;;;;;;;10.00;3.77;;;12.30;98.00;;;;;;5011846;28;20497;-66
2024/04/06 03:20:20;;;;;;;7.47;3.70;;;12.40;98.00;;;;;;5011552;28;20845;-66
2024/04/06 03:23:00;;;;;;;7.03;3.47;;;12.40;98.00;;;;;;5013021;28;20466;-66
2024/04/06 03:25:28;;;;;;;5.93;3.40;;;12.50;98.00;;;;;;5012808;28;20982;-66
2024/04/06 03:27:55;;;;;;;6.80;3.70;;;12.60;98.00;;;;;;5012703;28;20808;-66
2024/04/06 03:30:22;;;;;;;5.63;4.00;;;12.50;98.00;;;;;;5012712;28;20572;-66
2024/04/06 03:32:48;;;;;;;5.93;3.40;;;12.30;98.00;;;;;;5012608;28;20451;-66
2024/04/06 03:35:16;;;;;;;5.80;3.70;;;12.20;98.00;;;;;;5012911;28;20494;-66
2024/04/06 03:37:43;;;;;;;6.80;3.80;;;12.20;98.00;;;;;;5011455;28;20811;-66
2024/04/06 03:40:11;;;;;;;7.43;3.43;;;12.10;98.00;;;;;;5012442;28;20463;-66
2024/04/06 03:42:38;;;;;;;6.33;3.47;;;12.00;98.00;;;;;;5012711;28;20948;-66
2024/04/06 03:45:05;;;;;;;5.80;3.50;;;12.00;98.00;;;;;;5012490;28;20456;-66
2024/04/06 03:47:33;;;;;;;6.37;3.60;;;12.00;98.00;;;;;;5012470;28;20471;-66
2024/04/06 03:49:59;;;;;;;9.73;4.13;;;12.00;98.00;;;;;;5012028;28;20458;-66
2024/04/06 03:52:26;;;;;;;7.27;3.93;;;11.90;98.00;;;;;;5012586;28;20463;-66
2024/04/06 03:57:30;;;;;;;6.67;3.97;;;11.90;98.00;;;;;;5285155;22;20482;-68
2024/04/06 03:59:57;;;;;;;7.23;3.93;;;11.90;98.00;;;;;;5012225;28;20552;-68
2024/04/06 04:02:24;;;;;;;7.80;3.87;;;12.00;98.00;;;;;;5012235;28;20983;-68
2024/04/06 04:04:50;;;;;;;7.70;4.20;;;12.00;98.00;;;;;;5012125;28;20950;-68
2024/04/06 04:07:17;;;;;;;7.30;4.50;;;11.90;98.00;;;;;;5011901;28;20523;-68
2024/04/06 04:09:43;;;;;;;13.03;4.87;;;11.90;98.00;;;;;;5011840;28;20809;-65
2024/04/06 04:12:10;;;;;;;7.20;4.07;;;11.80;98.00;;;;;;5011762;28;20851;-65
2024/04/06 04:14:39;;;;;;;7.70;4.37;;;11.80;98.00;;;;;;5011845;28;20459;-65
2024/04/06 04:17:11;;;;;;;7.10;4.30;;;11.70;98.00;;;;;;5011425;28;20493;-65
2024/04/06 04:19:38;;;;;;;10.53;4.50;;;11.70;98.00;;;;;;5026839;28;20475;-66
2024/04/06 04:22:05;;;;;;;7.03;3.77;;;11.70;98.00;;;;;;5011270;28;20460;-65
2024/04/06 04:24:32;;;;;;;7.60;4.10;;;11.70;98.00;;;;;;5010001;28;20471;-65
2024/04/06 04:26:58;;;;;;;7.10;4.40;;;11.70;98.00;;;;;;5011356;28;20462;-65
2024/04/06 04:29:25;;;;;;;6.60;4.23;;;11.60;98.00;;;;;;5011322;28;20779;-65
2024/04/06 04:31:52;;;;;;;7.57;4.47;;;11.60;98.00;;;;;;5010783;28;20972;-65
2024/04/06 04:34:19;;;;;;;10.33;4.90;;;11.50;98.00;;;;;;5010374;28;20467;-65
2024/04/06 04:36:46;;;;;;;7.30;4.23;;;11.40;98.00;;;;;;5010284;28;20485;-65
2024/04/06 04:39:13;;;;;;;5.60;3.60;;;11.30;98.00;;;;;;5008528;28;20462;-65
2024/04/06 04:41:39;;;;;;;9.67;4.10;;;11.30;98.00;;;;;;5009764;28;20966;-65
2024/04/06 04:44:07;;;;;;;6.43;3.87;;;11.20;98.00;;;;;;5010061;28;20941;-65
2024/04/06 04:46:33;;;;;;;28.27;12.17;;;11.30;98.00;;;;;;5011211;28;20455;-66
2024/04/06 04:49:01;;;;;;;14.20;6.67;;;11.30;98.00;;;;;;5011028;28;20887;-66
2024/04/06 04:51:27;;;;;;;9.67;4.70;;;11.20;98.00;;;;;;5011175;28;20455;-65
2024/04/06 04:53:55;;;;;;;10.00;4.50;;;11.20;98.00;;;;;;5026394;28;20798;-65
2024/04/06 04:56:21;;;;;;;5.93;3.70;;;11.30;98.00;;;;;;5026175;28;20493;-65
2024/04/06 04:58:49;;;;;;;7.10;3.40;;;11.30;98.00;;;;;;5025966;28;20470;-65
2024/04/06 05:01:16;;;;;;;7.40;3.90;;;11.20;98.00;;;;;;5011096;28;20457;-66
2024/04/06 05:03:43;;;;;;;7.57;4.00;;;11.20;98.00;;;;;;5010873;28;20461;-65
2024/04/06 05:06:11;;;;;;;6.10;3.80;;;11.10;98.00;;;;;;5010748;28;20967;-65
2024/04/06 05:08:38;;;;;;;8.60;4.03;;;11.10;98.00;;;;;;5010977;28;20561;-65
2024/04/06 05:11:05;;;;;;;12.23;6.00;;;11.00;98.00;;;;;;5011156;28;20461;-67
2024/04/06 05:13:32;;;;;;;13.83;7.63;;;10.90;98.00;;;;;;5011086;28;20533;-65
2024/04/06 05:16:00;;;;;;;9.00;5.40;;;11.00;98.00;;;;;;5009465;28;20536;-65
2024/04/06 05:18:28;;;;;;;8.00;4.33;;;11.00;98.00;;;;;;5010842;28;20476;-65
2024/04/06 05:20:56;;;;;;;7.33;4.30;;;10.90;98.00;;;;;;5010814;28;20459;-65
2024/04/06 05:23:27;;;;;;;7.80;4.00;;;11.00;98.00;;;;;;5010890;28;20466;-65
2024/04/06 05:25:54;;;;;;;7.37;4.13;;;11.10;98.00;;;;;;5011721;28;20463;-65
2024/04/06 05:28:23;;;;;;;7.30;4.30;;;11.10;98.00;;;;;;5011720;28;20465;-65
2024/04/06 05:30:50;;;;;;;9.10;4.07;;;11.00;98.00;;;;;;5011032;28;20549;-65
2024/04/06 05:33:18;;;;;;;7.20;3.87;;;11.00;98.00;;;;;;5011823;28;20644;-65
2024/04/06 05:35:47;;;;;;;10.17;4.20;;;11.00;98.00;;;;;;5011461;28;20487;-65
2024/04/06 05:38:14;;;;;;;7.83;4.57;;;11.10;98.00;;;;;;5025783;28;20546;-67
2024/04/06 05:40:43;;;;;;;14.57;4.30;;;11.30;98.00;;;;;;5025814;28;20464;-66
2024/04/06 05:43:12;;;;;;;6.80;3.80;;;11.30;98.00;;;;;;5010837;28;20469;-67
2024/04/06 05:45:39;;;;;;;8.27;4.40;;;11.20;98.00;;;;;;5014366;28;20500;-67
2024/04/06 05:48:07;;;;;;;7.80;4.17;;;11.20;98.00;;;;;;5014778;28;20470;-66
2024/04/06 05:50:34;;;;;;;7.80;4.23;;;11.20;98.00;;;;;;5014814;28;20454;-67
2024/04/06 05:53:02;;;;;;;7.77;4.40;;;11.20;98.00;;;;;;5014315;28;20461;-66
2024/04/06 05:55:29;;;;;;;9.67;4.00;;;11.30;98.00;;;;;;5014014;28;20535;-67
2024/04/06 05:57:58;;;;;;;6.00;3.83;;;11.40;98.00;;;;;;5014206;28;20982;-68
2024/04/06 06:00:26;;;;;;;6.23;3.93;;;11.40;98.00;;;;;;5014049;28;20468;-69
2024/04/06 06:02:55;;;;;;;5.97;4.00;;;11.50;98.00;;;;;;5007070;28;20835;-69
2024/04/06 06:05:21;;;;;;;9.00;4.30;;;11.50;98.00;;;;;;5014699;28;20453;-69
2024/04/06 06:07:49;;;;;;;7.10;4.20;;;11.50;98.00;;;;;;5014577;28;20472;-69
2024/04/06 06:10:16;;;;;;;8.47;4.77;;;11.50;98.00;;;;;;5014325;28;20448;-69
2024/04/06 06:12:43;;;;;;;9.43;5.03;;;11.50;98.00;;;;;;5014261;28;20462;-69
2024/04/06 06:15:11;;;;;;;15.10;7.27;;;11.60;98.00;;;;;;5014060;28;20821;-68
2024/04/06 06:17:40;;;;;;;10.63;5.20;;;11.70;98.00;;;;;;5014370;28;20464;-67
2024/04/06 06:20:07;;;;;;;9.23;4.50;;;11.70;98.00;;;;;;5014161;28;20489;-68
2024/04/06 06:22:34;;;;;;;7.03;4.40;;;11.70;98.00;;;;;;5014382;28;20527;-68
2024/04/06 06:25:00;;;;;;;8.53;4.40;;;11.80;98.00;;;;;;5014202;28;20509;-68
2024/04/06 06:27:27;;;;;;;7.80;4.53;;;11.90;98.00;;;;;;5014496;28;20539;-68
2024/04/06 06:29:54;;;;;;;8.63;4.27;;;12.00;98.00;;;;;;5013999;28;20824;-68
2024/04/06 06:32:23;;;;;;;7.10;4.50;;;12.10;98.00;;;;;;5014210;28;20467;-68
2024/04/06 06:34:49;;;;;;;7.83;4.53;;;12.20;98.00;;;;;;5013860;28;20514;-68
2024/04/06 06:37:17;;;;;;;7.67;4.37;;;12.30;98.00;;;;;;5013668;28;20498;-67
2024/04/06 06:39:44;;;;;;;6.10;3.80;;;12.40;98.00;;;;;;5013483;28;20496;-68
2024/04/06 06:42:13;;;;;;;8.43;4.00;;;12.50;98.00;;;;;;5028870;28;20457;-68
2024/04/06 06:44:39;;;;;;;8.40;4.50;;;12.60;98.00;;;;;;5014039;28;20969;-68
2024/04/06 06:47:06;;;;;;;6.93;4.33;;;12.70;98.00;;;;;;5014224;28;20454;-67
2024/04/06 06:49:34;;;;;;;7.00;4.40;;;12.80;98.00;;;;;;5013616;28;20448;-68
2024/04/06 06:52:01;;;;;;;6.03;4.00;;;12.90;98.00;;;;;;5013673;28;20936;-68
2024/04/06 06:54:27;;;;;;;9.43;4.30;;;13.00;98.00;;;;;;5013320;28;20953;-67
2024/04/06 06:56:55;;;;;;;6.30;4.20;;;13.10;98.00;;;;;;5013432;28;20499;-67
2024/04/06 06:59:21;;;;;;;7.17;4.33;;;13.20;98.00;;;;;;5028753;28;20538;-67
2024/04/06 07:01:49;;;;;;;8.07;4.30;;;13.30;98.00;;;;;;5013507;28;20462;-67
2024/04/06 07:04:15;;;;;;;6.97;4.23;;;13.40;98.00;;;;;;5012795;28;20459;-67
2024/04/06 07:06:44;;;;;;;10.03;4.20;;;13.50;98.00;;;;;;5012215;28;20884;-67
2024/04/06 07:09:10;;;;;;;7.17;4.40;;;13.70;98.00;;;;;;5013461;28;20879;-67
2024/04/06 07:11:37;;;;;;;8.40;4.53;;;13.80;98.00;;;;;;5028284;28;20473;-67
2024/04/06 07:14:06;;;;;;;8.80;4.03;;;14.00;98.00;;;;;;5028404;28;20451;-67
2024/04/06 07:16:33;;;;;;;6.33;4.00;;;14.10;98.00;;;;;;5013185;28;20487;-67
2024/04/06 07:18:59;;;;;;;6.37;3.90;;;14.20;98.00;;;;;;5013146;28;20976;-67
2024/04/06 07:21:27;;;;;;;5.53;4.03;;;14.20;98.00;;;;;;5013075;28;20467;-67
2024/04/06 07:23:54;;;;;;;5.83;3.60;;;14.20;98.00;;;;;;5013009;28;20525;-67
2024/04/06 07:26:25;;;;;;;7.07;3.77;;;14.20;98.00;;;;;;5013023;28;20463;-67
2024/04/06 07:28:51;;;;;;;8.43;3.30;;;14.30;98.00;;;;;;5012990;28;20521;-67
2024/04/06 07:31:18;;;;;;;10.03;4.00;;;14.40;98.00;;;;;;5013065;28;20459;-67
2024/04/06 07:33:45;;;;;;;7.00;4.03;;;14.50;98.00;;;;;;5013007;28;20811;-67
2024/04/06 07:36:13;;;;;;;5.20;3.60;;;14.60;98.00;;;;;;5013112;28;20490;-67
2024/04/06 07:38:39;;;;;;;5.27;3.43;;;14.70;98.00;;;;;;5013098;28;20455;-68
2024/04/06 07:41:08;;;;;;;5.73;3.60;;;14.80;98.00;;;;;;5012883;28;20459;-68
2024/04/06 07:43:35;;;;;;;5.83;3.60;;;14.80;98.00;;;;;;5026965;28;20548;-68
2024/04/06 07:46:02;;;;;;;5.90;3.80;;;14.90;98.00;;;;;;5010884;28;20492;-68
2024/04/06 07:48:29;;;;;;;7.10;3.50;;;15.10;98.00;;;;;;5012845;28;20458;-67
2024/04/06 07:50:56;;;;;;;6.50;3.60;;;15.20;98.00;;;;;;5011420;28;20471;-67
2024/04/06 07:53:23;;;;;;;5.00;3.50;;;15.40;98.00;;;;;;5027576;28;20462;-67
2024/04/06 07:55:52;;;;;;;4.50;3.63;;;15.50;98.00;;;;;;5012967;28;20471;-68
2024/04/06 07:58:20;;;;;;;7.07;4.07;;;15.60;98.00;;;;;;5032481;28;20520;-68
2024/04/06 08:00:47;;;;;;;8.67;4.20;;;15.80;98.00;;;;;;5032386;28;20598;-68
2024/04/06 08:05:43;;;;;;;7.90;3.70;;;16.00;98.00;;;;;;5030520;28;20471;-67
2024/04/06 08:08:10;;;;;;;12.03;4.07;;;16.20;98.00;;;;;;5032320;28;20466;-68
2024/04/06 08:10:38;;;;;;;5.87;3.43;;;16.50;98.00;;;;;;5032775;28;20864;-68
2024/04/06 08:13:05;;;;;;;5.00;3.40;;;16.60;98.00;;;;;;5032638;28;20454;-68
2024/04/06 08:15:34;;;;;;;8.97;3.50;;;16.70;98.00;;;;;;5031181;28;20466;-69
2024/04/06 08:18:00;;;;;;;5.20;3.27;;;16.80;98.00;;;;;;5032474;28;20451;-69
2024/04/06 08:20:27;;;;;;;5.30;3.57;;;16.90;98.00;;;;;;5032554;28;20542;-68
2024/04/06 08:22:53;;;;;;;4.97;3.67;;;17.10;98.00;;;;;;5032420;28;20451;-68
2024/04/06 08:25:21;;;;;;;5.93;3.30;;;17.20;98.00;;;;;;5032081;28;20502;-67
2024/04/06 08:27:47;;;;;;;6.50;3.40;;;17.40;98.00;;;;;;5032344;28;20983;-67
2024/04/06 08:30:14;;;;;;;3.50;2.87;;;17.50;98.00;;;;;;5032496;28;20494;-67
2024/04/06 08:32:43;;;;;;;5.00;3.20;;;17.70;98.00;;;;;;5030882;28;20571;-67
2024/04/06 08:35:14;;;;;;;7.40;3.73;;;17.80;98.00;;;;;;5032168;28;20469;-68
2024/04/06 08:37:40;;;;;;;5.87;3.43;;;18.00;98.00;;;;;;5031816;28;21150;-67
2024/04/06 08:40:10;;;;;;;4.20;3.30;;;18.10;98.00;;;;;;5030268;28;20960;-67
2024/04/06 08:42:40;;;;;;;4.60;3.00;;;18.30;98.00;;;;;;5030550;28;20458;-67
2024/04/06 08:45:08;;;;;;;8.00;3.60;;;18.50;98.00;;;;;;5030368;28;20661;-67
2024/04/06 08:47:34;;;;;;;4.67;3.40;;;18.80;98.00;;;;;;5030298;28;20455;-68
2024/04/06 08:50:06;;;;;;;5.73;3.23;;;18.90;98.00;;;;;;5030362;28;20504;-67
2024/04/06 08:52:35;;;;;;;4.77;3.17;;;19.10;98.00;;;;;;5031058;28;20866;-67
2024/04/06 08:55:03;;;;;;;4.70;3.20;;;19.30;98.00;;;;;;5031846;28;20466;-67
2024/04/06 08:57:31;;;;;;;3.43;2.80;;;19.50;98.00;;;;;;5032159;28;20482;-67
2024/04/06 08:59:59;;;;;;;4.50;3.30;;;19.70;98.00;;;;;;5030846;28;20458;-67
2024/04/06 09:02:30;;;;;;;5.63;3.40;;;19.90;98.00;;;;;;5032200;28;20451;-67
2024/04/06 09:04:57;;;;;;;4.40;3.00;;;19.90;98.00;;;;;;5032040;28;20475;-68
2024/04/06 09:07:25;;;;;;;5.70;3.10;;;20.10;98.00;;;;;;5032000;28;20455;-67
2024/04/06 09:09:56;;;;;;;4.37;3.10;;;20.20;98.00;;;;;;5032209;28;20474;-67
2024/04/06 09:12:22;;;;;;;5.80;3.13;;;20.40;98.00;;;;;;5032228;28;20457;-67
2024/04/06 09:14:50;;;;;;;6.70;3.33;;;20.60;98.00;;;;;;5032115;28;20505;-68
2024/04/06 09:17:17;;;;;;;7.70;3.30;;;20.80;98.00;;;;;;5031212;28;20482;-67
2024/04/06 09:19:47;;;;;;;4.57;3.10;;;21.00;98.00;;;;;;5036299;28;20486;-68
2024/04/06 09:22:14;;;;;;;5.63;3.00;;;21.20;98.00;;;;;;5036286;28;20493;-67
2024/04/06 09:24:42;;;;;;;4.27;3.17;;;21.30;98.00;;;;;;5035842;28;20466;-68
2024/04/06 09:27:10;;;;;;;5.60;3.03;;;21.50;98.00;;;;;;5035770;28;20476;-68
2024/04/06 09:29:39;;;;;;;6.13;3.30;;;21.70;98.00;;;;;;5035801;28;21219;-68
2024/04/06 09:32:10;;;;;;;5.00;3.20;;;21.90;98.00;;;;;;5035410;28;20956;-67
2024/04/06 09:34:46;;;;;;;6.70;3.10;;;22.20;98.00;;;;;;5033761;28;20463;-68
2024/04/06 09:37:13;;;;;;;5.60;3.07;;;22.50;98.00;;;;;;5035390;28;20485;-68
2024/04/06 09:39:42;;;;;;;4.30;3.20;;;22.70;98.00;;;;;;5035030;28;20462;-68
2024/04/06 09:42:10;;;;;;;4.70;2.87;;;22.90;98.00;;;;;;5031857;28;20462;-68
2024/04/06 09:44:37;;;;;;;3.30;2.60;;;23.10;98.00;;;;;;5023863;28;20491;-67
2024/04/06 09:47:05;;;;;;;4.50;2.70;;;23.20;98.00;;;;;;5035545;28;20542;-67
2024/04/06 09:49:35;;;;;;;4.37;2.90;;;23.30;96.10;;;;;;5034958;28;20458;-69
2024/04/06 09:52:03;;;;;;;3.90;2.70;;;23.50;95.10;;;;;;5035127;28;20450;-68
2024/04/06 09:54:30;;;;;;;3.10;2.20;;;23.60;96.30;;;;;;5034787;28;20481;-68
2024/04/06 09:56:59;;;;;;;2.83;2.17;;;23.80;91.00;;;;;;5032667;28;21026;-68
2024/04/06 09:59:29;;;;;;;3.00;2.37;;;23.80;87.50;;;;;;5034224;28;20462;-68
2024/04/06 10:01:57;;;;;;;3.40;2.07;;;23.90;85.40;;;;;;5033331;28;21018;-68
2024/04/06 10:04:25;;;;;;;2.67;2.10;;;24.10;84.00;;;;;;5033673;28;20485;-68
2024/04/06 10:06:52;;;;;;;2.10;2.00;;;24.20;84.50;;;;;;5034079;28;20463;-68
2024/04/06 10:09:19;;;;;;;2.70;2.20;;;24.50;81.90;;;;;;5034417;28;20490;-68
2024/04/06 10:11:45;;;;;;;2.83;2.47;;;24.80;81.00;;;;;;5034625;28;20554;-68
2024/04/06 10:14:22;;;;;;;2.40;2.20;;;24.90;75.40;;;;;;5034718;28;20443;-68
2024/04/06 10:16:48;;;;;;;3.90;2.40;;;25.00;75.80;;;;;;5034533;28;20494;-68
2024/04/06 10:19:17;;;;;;;6.90;2.20;;;25.20;77.10;;;;;;5034189;28;20497;-68
2024/04/06 10:21:45;;;;;;;3.97;2.50;;;25.40;75.20;;;;;;5034824;28;20458;-68
2024/04/06 10:24:13;;;;;;;3.00;2.27;;;25.60;79.30;;;;;;5034733;28;20458;-67
2024/04/06 10:26:46;;;;;;;5.03;2.30;;;25.60;73.20;;;;;;5034504;28;20446;-68
2024/04/06 10:29:15;;;;;;;2.27;1.90;;;25.80;75.10;;;;;;5033751;28;20512;-68
2024/04/06 10:31:42;;;;;;;2.70;2.00;;;26.00;73.90;;;;;;5034265;28;20455;-68
2024/04/06 10:34:09;;;;;;;3.50;2.13;;;26.10;71.80;;;;;;5034418;28;20466;-68
2024/04/06 10:36:36;;;;;;;2.47;2.37;;;26.30;73.00;;;;;;5034381;28;20494;-68
2024/04/06 10:39:04;;;;;;;3.33;2.20;;;26.50;73.00;;;;;;5033888;28;20581;-68
2024/04/06 10:41:31;;;;;;;2.40;1.90;;;;;;;;;;5034505;28;20494;-68
2024/04/06 10:43:59;;;;;;;2.57;2.07;;;26.80;73.30;;;;;;5049539;28;20977;-68
2024/04/06 10:46:26;;;;;;;2.73;2.10;;;27.00;69.70;;;;;;5034281;28;20817;-68
2024/04/06 10:48:54;;;;;;;4.00;2.30;;;27.30;69.30;;;;;;5033983;28;20494;-68
2024/04/06 10:51:21;;;;;;;3.10;2.20;;;27.40;68.10;;;;;;5034259;28;20459;-68
2024/04/06 10:53:49;;;;;;;3.07;2.30;;;27.60;69.10;;;;;;5049625;28;20508;-68
2024/04/06 10:56:15;;;;;;;3.07;2.17;;;27.80;68.80;;;;;;5034449;28;20478;-68
2024/04/06 10:58:42;;;;;;;2.57;1.90;;;27.90;66.00;;;;;;5034136;28;20502;-68
2024/04/06 11:01:15;;;;;;;2.90;2.03;;;27.70;63.60;;;;;;5034008;28;20447;-68
2024/04/06 11:03:43;;;;;;;2.00;1.80;;;27.70;64.60;;;;;;5034039;28;20593;-68
2024/04/06 11:06:10;;;;;;;2.23;1.90;;;27.80;67.50;;;;;;5033728;28;20454;-68
2024/04/06 11:08:37;;;;;;;3.40;2.00;;;28.00;66.70;;;;;;5033746;28;20555;-68
2024/04/06 11:11:06;;;;;;;2.77;2.30;;;28.10;65.60;;;;;;5032992;28;20549;-69
2024/04/06 11:13:39;;;;;;;5.07;2.00;;;28.30;63.20;;;;;;5031663;28;20553;-68
2024/04/06 11:16:06;;;;;;;2.00;1.90;;;28.30;63.10;;;;;;5033266;28;20450;-68
2024/04/06 11:18:40;;;;;;;2.30;2.00;;;28.20;60.80;;;;;;5048557;28;20511;-68
2024/04/06 11:21:10;;;;;;;1.97;1.87;;;28.30;65.10;;;;;;5033331;28;20462;-68
2024/04/06 11:23:37;;;;;;;3.00;2.40;;;28.40;65.00;;;;;;5033708;28;20550;-68
2024/04/06 11:26:03;;;;;;;3.73;2.10;;;28.50;60.80;;;;;;5033337;28;20450;-68
2024/04/06 11:28:34;;;;;;;2.57;2.27;;;28.30;60.20;;;;;;5033134;28;20466;-68
2024/04/06 11:31:00;;;;;;;5.97;2.23;;;28.70;63.00;;;;;;5033042;28;20477;-68
2024/04/06 11:33:28;;;;;;;2.37;2.07;;;29.00;64.00;;;;;;5048487;28;20474;-68
2024/04/06 11:35:54;;;;;;;3.67;2.53;;;29.30;60.80;;;;;;5033270;28;20458;-68
2024/04/06 11:38:23;;;;;;;2.80;2.20;;;29.60;62.70;;;;;;5033227;28;20536;-68
2024/04/06 11:40:52;;;;;;;6.83;2.10;;;30.00;64.90;;;;;;5032752;28;20501;-68
2024/04/06 11:43:20;;;;;;;2.13;1.93;;;29.80;61.80;;;;;;5033240;28;20463;-68
2024/04/06 11:45:46;;;;;;;2.40;2.00;;;29.60;58.20;;;;;;5033193;28;20454;-68
2024/04/06 11:48:14;;;;;;;2.10;2.00;;;29.70;59.90;;;;;;5048431;28;20530;-68
2024/04/06 11:50:41;;;;;;;4.70;2.20;;;29.80;60.10;;;;;;5047991;28;20502;-67
2024/04/06 11:53:09;;;;;;;2.10;1.93;;;30.00;62.90;;;;;;5032753;28;20458;-68
2024/04/06 11:55:36;;;;;;;2.90;2.20;;;30.20;61.20;;;;;;5033007;28;20999;-68
2024/04/06 11:58:04;;;;;;;2.63;2.10;;;30.60;62.40;;;;;;5032943;28;20491;-69
2024/04/06 12:00:30;;;;;;;2.93;2.00;;;31.10;60.10;;;;;;5032749;28;20819;-69
2024/04/06 12:02:58;;;;;;;2.40;2.20;;;31.40;59.10;;;;;;5032820;28;20470;-68
2024/04/06 12:05:25;;;;;;;2.50;2.20;;;31.50;59.90;;;;;;5047778;28;20821;-69
2024/04/06 12:07:52;;;;;;;3.40;2.30;;;31.40;59.60;;;;;;5032979;28;20816;-68
2024/04/06 12:10:18;;;;;;;2.47;2.00;;;31.60;61.60;;;;;;5032632;28;20477;-68
2024/04/06 12:12:47;;;;;;;3.87;2.67;;;31.90;60.90;;;;;;5032484;28;20467;-68
2024/04/06 12:15:13;;;;;;;2.90;2.23;;;32.20;59.20;;;;;;5032436;28;20512;-69
2024/04/06 12:17:40;;;;;;;2.97;2.50;;;32.60;61.30;;;;;;5032525;28;20841;-69
2024/04/06 12:20:06;;;;;;;3.00;2.40;;;32.20;59.40;;;;;;5032581;28;20454;-68
2024/04/06 12:22:34;;;;;;;2.50;2.20;;;32.10;59.50;;;;;;5047797;28;20462;-68
2024/04/06 12:25:00;;;;;;;6.63;2.33;;;32.40;60.70;;;;;;5022057;28;20926;-68
2024/04/06 12:27:27;;;;;;;3.00;2.30;;;32.70;60.10;;;;;;5012557;28;20451;-68
2024/04/06 12:29:55;;;;;;;2.73;2.30;;;32.40;61.30;;;;;;5012541;28;20958;-68
2024/04/06 12:32:22;;;;;;;3.17;2.50;;;32.50;59.70;;;;;;5012679;28;20463;-68
2024/04/06 12:34:48;;;;;;;2.93;2.40;;;32.60;58.30;;;;;;5012314;28;20456;-68
2024/04/06 12:37:15;;;;;;;3.30;2.43;;;32.50;61.40;;;;;;5027179;28;21043;-68
2024/04/06 12:39:42;;;;;;;3.23;2.40;;;32.50;60.80;;;;;;5011716;28;20466;-68
2024/04/06 12:42:09;;;;;;;2.97;2.60;;;32.60;60.70;;;;;;5011767;28;20824;-68
2024/04/06 12:44:35;;;;;;;3.20;2.43;;;33.00;61.00;;;;;;5011772;28;20456;-68
2024/04/06 12:47:04;;;;;;;3.10;2.20;;;33.50;62.80;;;;;;5011622;28;20464;-68
2024/04/06 12:49:31;;;;;;;3.17;2.37;;;33.80;60.00;;;;;;5012575;28;20926;-69
2024/04/06 12:51:57;;;;;;;3.27;2.20;;;33.90;54.40;;;;;;5012190;28;20455;-68